Time;durP1;ratioP1;P1;durP2;ratioP2;P2;SDS_P1;SDS_P2;PMS_P1;PMS_P2;Temp;Humidity;BMP_temperature;BMP_pressure;BME280_temperature;BME280_humidity;BME280_pressure;Samples;Min_cycle;Max_cycle;Signal;HPM_P1;HPM_P2
2024/01/20 00:01:44;;;;;;;10.75;4.65;;;1.60;99.90;;;;;;5052860;28;20120;-69
2024/01/20 00:04:10;;;;;;;14.05;5.10;;;1.60;99.90;;;;;;5051307;28;20167;-70
2024/01/20 00:06:36;;;;;;;11.32;4.45;;;1.60;99.90;;;;;;5044705;28;20126;-69
2024/01/20 00:09:02;;;;;;;12.10;5.18;;;1.50;99.90;;;;;;5054567;28;20124;-69
2024/01/20 00:11:28;;;;;;;13.02;5.40;;;1.50;99.90;;;;;;5028610;28;20045;-69
2024/01/20 00:13:54;;;;;;;14.35;4.80;;;1.50;99.90;;;;;;5055448;28;20036;-69
2024/01/20 00:16:19;;;;;;;13.75;4.82;;;1.50;99.90;;;;;;5052668;28;20116;-73
2024/01/20 00:18:45;;;;;;;14.68;5.47;;;1.50;99.90;;;;;;5038862;28;20392;-69
2024/01/20 00:21:11;;;;;;;12.38;5.07;;;1.50;99.90;;;;;;5022838;28;20100;-70
2024/01/20 00:23:37;;;;;;;9.73;5.20;;;1.40;99.90;;;;;;5048426;28;20040;-69
2024/01/20 00:26:03;;;;;;;13.40;5.65;;;1.50;99.90;;;;;;5044760;28;20442;-69
2024/01/20 00:28:29;;;;;;;12.25;5.78;;;1.50;99.90;;;;;;5043880;28;20037;-69
2024/01/20 00:30:55;;;;;;;8.90;5.20;;;1.40;99.90;;;;;;5053409;28;20041;-69
2024/01/20 00:33:20;;;;;;;15.50;5.85;;;1.40;99.90;;;;;;5035062;28;20516;-69
2024/01/20 00:35:47;;;;;;;15.18;5.78;;;1.60;99.90;;;;;;5045877;28;20171;-69
2024/01/20 00:38:13;;;;;;;9.63;5.53;;;1.40;99.90;;;;;;5054388;28;20170;-69
2024/01/20 00:40:39;;;;;;;10.38;5.65;;;1.40;99.90;;;;;;5048952;28;20064;-69
2024/01/20 00:43:05;;;;;;;15.27;5.75;;;1.40;99.90;;;;;;5054798;28;20053;-69
2024/01/20 00:45:30;;;;;;;12.80;6.05;;;1.30;99.90;;;;;;5021085;28;20116;-69
2024/01/20 00:47:56;;;;;;;13.05;6.72;;;1.30;99.90;;;;;;5051146;28;20068;-69
2024/01/20 00:50:22;;;;;;;15.15;6.63;;;1.30;99.90;;;;;;5051313;28;20048;-69
2024/01/20 00:52:48;;;;;;;15.43;6.50;;;1.50;99.90;;;;;;5051207;28;20047;-69
2024/01/20 00:55:14;;;;;;;13.88;7.25;;;1.20;99.90;;;;;;5041800;28;20038;-69
2024/01/20 00:57:39;;;;;;;15.35;7.28;;;1.20;99.90;;;;;;5041622;28;20076;-69
2024/01/20 01:00:09;;;;;;;13.48;6.85;;;1.50;99.90;;;;;;5015794;28;20045;-69
2024/01/20 01:02:35;;;;;;;12.98;7.15;;;1.20;99.90;;;;;;5044931;28;20367;-69
2024/01/20 01:05:02;;;;;;;13.95;6.88;;;1.20;99.90;;;;;;5038527;28;20045;-71
2024/01/20 01:07:27;;;;;;;14.27;7.28;;;1.20;99.90;;;;;;5026780;28;20045;-71
2024/01/20 01:09:53;;;;;;;13.85;6.82;;;1.30;99.90;;;;;;5037934;28;20099;-69
2024/01/20 01:12:19;;;;;;;14.23;7.57;;;1.20;99.90;;;;;;5051016;28;20057;-71
2024/01/20 01:14:44;;;;;;;21.02;7.47;;;1.20;99.90;;;;;;5012910;28;20052;-70
2024/01/20 01:17:10;;;;;;;13.82;6.88;;;1.20;99.90;;;;;;5032321;28;20417;-69
2024/01/20 01:19:36;;;;;;;13.93;7.50;;;1.20;99.90;;;;;;5032875;28;20076;-69
2024/01/20 01:22:02;;;;;;;17.38;7.63;;;1.40;99.90;;;;;;5033666;28;20407;-69
2024/01/20 01:24:28;;;;;;;13.90;7.57;;;1.20;99.90;;;;;;5039400;28;20068;-69
2024/01/20 01:26:53;;;;;;;15.02;7.68;;;1.20;99.90;;;;;;5042798;28;20349;-69
2024/01/20 01:29:19;;;;;;;14.25;6.80;;;2.00;99.90;;;;;;5014265;28;20046;-69
2024/01/20 01:31:45;;;;;;;14.00;8.00;;;1.20;99.90;;;;;;5063662;28;20033;-69
2024/01/20 01:34:11;;;;;;;17.20;8.00;;;1.20;99.90;;;;;;5041045;28;20076;-69
2024/01/20 01:36:36;;;;;;;15.18;7.80;;;1.30;99.90;;;;;;5018257;28;20425;-70
2024/01/20 01:39:02;;;;;;;13.68;7.95;;;1.40;99.90;;;;;;5032428;28;20459;-69
2024/01/20 01:41:28;;;;;;;13.88;7.35;;;1.30;99.90;;;;;;5039304;28;20459;-69
2024/01/20 01:43:53;;;;;;;21.77;8.18;;;2.50;99.90;;;;;;5044951;28;20060;-69
2024/01/20 01:46:20;;;;;;;13.25;8.13;;;1.40;99.90;;;;;;5050053;28;20095;-69
2024/01/20 01:48:46;;;;;;;13.45;8.00;;;1.40;99.90;;;;;;5048638;28;20041;-68
2024/01/20 01:51:12;;;;;;;17.05;8.73;;;1.30;99.90;;;;;;5053207;28;20110;-69
2024/01/20 01:53:39;;;;;;;13.90;7.88;;;1.40;99.90;;;;;;5044949;28;20033;-69
2024/01/20 01:56:06;;;;;;;13.45;7.53;;;1.40;99.90;;;;;;5045363;28;20048;-69
2024/01/20 01:58:32;;;;;;;13.13;7.82;;;1.30;99.90;;;;;;5029215;28;20041;-69
2024/01/20 02:00:59;;;;;;;16.13;8.15;;;1.50;99.90;;;;;;5040937;28;20539;-69
2024/01/20 02:03:25;;;;;;;14.68;7.95;;;1.70;99.90;;;;;;5043330;28;20044;-68
2024/01/20 02:05:51;;;;;;;10.30;7.45;;;1.40;99.90;;;;;;5039213;28;20045;-68
2024/01/20 02:08:18;;;;;;;14.32;8.30;;;1.40;99.90;;;;;;5043669;28;20044;-69
2024/01/20 02:10:46;;;;;;;14.80;7.97;;;1.40;99.90;;;;;;5048004;28;20041;-69
2024/01/20 02:13:13;;;;;;;11.15;7.57;;;1.50;99.90;;;;;;5039362;28;20170;-68
2024/01/20 02:15:39;;;;;;;14.30;8.45;;;1.40;99.90;;;;;;5045202;28;20377;-69
2024/01/20 02:18:05;;;;;;;16.67;8.10;;;1.50;99.90;;;;;;5026169;28;20047;-68
2024/01/20 02:20:31;;;;;;;14.00;8.18;;;1.40;99.90;;;;;;5048127;28;20041;-69
2024/01/20 02:22:56;;;;;;;20.67;8.10;;;1.50;99.90;;;;;;5048951;28;20150;-69
2024/01/20 02:25:22;;;;;;;13.63;8.05;;;2.10;99.90;;;;;;5047929;28;20044;-69
2024/01/20 02:27:48;;;;;;;13.70;7.80;;;1.40;99.90;;;;;;5049049;28;20047;-68
2024/01/20 02:30:14;;;;;;;12.68;7.75;;;1.40;99.90;;;;;;5037129;28;20041;-69
2024/01/20 02:32:39;;;;;;;19.73;8.32;;;1.40;99.90;;;;;;5049969;28;20044;-70
2024/01/20 02:35:06;;;;;;;14.70;8.38;;;1.40;99.90;;;;;;5047947;28;20033;-69
2024/01/20 02:37:31;;;;;;;16.55;8.70;;;1.40;99.90;;;;;;5048804;28;20048;-69
2024/01/20 02:39:57;;;;;;;19.35;8.88;;;1.50;99.90;;;;;;5047838;28;20482;-69
2024/01/20 02:42:23;;;;;;;15.45;8.38;;;1.40;99.90;;;;;;5048433;28;20091;-69
2024/01/20 02:44:50;;;;;;;14.75;8.75;;;2.20;99.90;;;;;;5046423;28;20032;-69
2024/01/20 02:47:16;;;;;;;13.70;8.68;;;1.40;99.90;;;;;;5045019;28;20116;-69
2024/01/20 02:49:42;;;;;;;15.13;9.27;;;1.40;99.90;;;;;;5043415;28;20037;-71
2024/01/20 02:52:08;;;;;;;14.52;9.27;;;1.30;99.90;;;;;;5046262;28;20044;-69
2024/01/20 02:54:33;;;;;;;10.88;8.73;;;1.30;99.90;;;;;;5036012;28;20057;-69
2024/01/20 02:56:59;;;;;;;16.98;8.82;;;1.20;99.90;;;;;;5036470;28;20431;-69
2024/01/20 02:59:25;;;;;;;15.55;8.60;;;1.20;99.90;;;;;;5045925;28;20111;-69
2024/01/20 03:01:50;;;;;;;14.73;10.50;;;1.30;99.90;;;;;;5075679;28;20052;-69
2024/01/20 03:04:16;;;;;;;15.18;9.60;;;1.20;99.90;;;;;;5023447;28;20068;-69
2024/01/20 03:06:42;;;;;;;14.40;9.73;;;1.20;99.90;;;;;;5047600;28;20117;-69
2024/01/20 03:09:08;;;;;;;19.30;10.30;;;1.20;99.90;;;;;;5080507;28;20044;-69
2024/01/20 03:11:37;;;;;;;23.02;11.60;;;1.20;99.90;;;;;;5052224;28;20041;-69
2024/01/20 03:14:02;;;;;;;24.02;11.45;;;1.10;99.90;;;;;;5051872;28;20051;-69
2024/01/20 03:16:28;;;;;;;16.95;10.73;;;1.30;99.90;;;;;;5042933;28;20045;-71
2024/01/20 03:18:54;;;;;;;19.15;11.45;;;1.20;99.90;;;;;;5052465;28;20041;-69
2024/01/20 03:21:19;;;;;;;18.17;11.23;;;1.10;99.90;;;;;;5054859;28;20037;-69
2024/01/20 03:23:45;;;;;;;15.75;12.00;;;1.10;99.90;;;;;;5039863;28;20041;-69
2024/01/20 03:26:11;;;;;;;16.38;11.68;;;1.10;99.90;;;;;;5051256;28;20055;-69
2024/01/20 03:28:37;;;;;;;18.70;12.70;;;1.10;99.90;;;;;;5052182;28;20063;-69
2024/01/20 03:31:03;;;;;;;19.80;12.70;;;1.00;99.90;;;;;;5051977;28;20048;-69
2024/01/20 03:33:29;;;;;;;23.45;13.80;;;1.10;99.90;;;;;;5048870;28;20045;-68
2024/01/20 03:35:55;;;;;;;20.10;13.27;;;1.00;99.90;;;;;;5039422;28;20067;-69
2024/01/20 03:38:20;;;;;;;24.70;14.18;;;1.00;99.90;;;;;;5035587;28;20119;-69
2024/01/20 03:40:46;;;;;;;22.42;14.32;;;1.00;99.90;;;;;;5053601;28;20041;-69
2024/01/20 03:43:12;;;;;;;23.95;13.95;;;1.00;99.90;;;;;;5065852;28;20132;-69
2024/01/20 03:45:42;;;;;;;21.80;15.43;;;1.70;99.90;;;;;;5048893;28;20077;-69
2024/01/20 03:48:09;;;;;;;30.00;15.48;;;0.90;99.90;;;;;;5052100;28;20044;-69
2024/01/20 03:50:35;;;;;;;20.55;15.55;;;0.90;99.90;;;;;;5052917;28;20056;-69
2024/01/20 03:53:00;;;;;;;24.60;15.48;;;0.90;99.90;;;;;;5051544;28;20104;-69
2024/01/20 03:55:26;;;;;;;21.15;16.27;;;1.10;99.90;;;;;;5049482;28;20490;-69
2024/01/20 03:57:52;;;;;;;25.55;16.77;;;0.90;99.90;;;;;;5052227;28;20566;-71
2024/01/20 04:00:18;;;;;;;24.48;17.02;;;0.90;99.90;;;;;;5050917;28;20040;-69
2024/01/20 04:02:43;;;;;;;25.67;15.48;;;0.90;99.90;;;;;;5051114;28;20048;-70
2024/01/20 04:05:09;;;;;;;26.42;17.05;;;0.90;99.90;;;;;;5044836;28;20044;-69
2024/01/20 04:07:36;;;;;;;23.98;16.42;;;0.90;99.90;;;;;;5050150;28;20069;-69
2024/01/20 04:10:02;;;;;;;23.65;16.75;;;0.80;99.90;;;;;;5057267;28;20124;-69
2024/01/20 04:12:28;;;;;;;28.80;17.63;;;0.80;99.90;;;;;;5053637;28;20128;-69
2024/01/20 04:14:55;;;;;;;22.08;17.38;;;0.80;99.90;;;;;;5051473;28;20035;-69
2024/01/20 04:17:21;;;;;;;27.70;17.83;;;0.80;99.90;;;;;;5037387;28;20482;-69
2024/01/20 04:19:47;;;;;;;25.60;17.88;;;0.80;99.90;;;;;;5033941;28;20120;-69
2024/01/20 04:22:13;;;;;;;25.77;17.70;;;0.80;99.90;;;;;;5050970;28;20403;-69
2024/01/20 04:24:38;;;;;;;25.23;16.83;;;0.70;99.90;;;;;;5051983;28;20121;-69
2024/01/20 04:27:04;;;;;;;28.52;18.05;;;1.30;99.90;;;;;;5049355;28;20044;-69
2024/01/20 04:29:30;;;;;;;23.90;18.30;;;1.30;99.90;;;;;;5036567;28;20124;-69
2024/01/20 04:31:56;;;;;;;26.33;17.27;;;0.70;99.90;;;;;;5083398;28;20036;-69
2024/01/20 04:34:22;;;;;;;25.17;18.85;;;0.70;99.90;;;;;;5044634;28;20125;-69
2024/01/20 04:36:47;;;;;;;27.35;19.05;;;0.70;99.90;;;;;;5037227;28;20039;-69
2024/01/20 04:39:13;;;;;;;23.25;18.35;;;1.30;99.90;;;;;;5051579;28;20033;-69
2024/01/20 04:41:38;;;;;;;25.98;18.13;;;0.70;99.90;;;;;;5035274;28;20040;-70
2024/01/20 04:44:04;;;;;;;26.45;18.52;;;0.80;99.90;;;;;;5051310;28;20048;-69
2024/01/20 04:46:30;;;;;;;24.63;18.13;;;0.70;99.90;;;;;;5053057;28;20413;-69
2024/01/20 04:48:56;;;;;;;27.77;18.25;;;0.70;99.90;;;;;;5052287;28;20390;-69
2024/01/20 04:51:22;;;;;;;27.48;19.20;;;0.70;99.90;;;;;;5050833;28;20552;-69
2024/01/20 04:53:47;;;;;;;31.17;18.50;;;0.60;99.90;;;;;;5062963;28;20044;-69
2024/01/20 04:56:13;;;;;;;27.38;18.83;;;0.60;99.90;;;;;;5050200;28;20150;-68
2024/01/20 04:58:39;;;;;;;25.58;18.75;;;0.60;99.90;;;;;;5043519;28;20434;-68
2024/01/20 05:01:05;;;;;;;27.95;18.92;;;1.00;99.90;;;;;;5049859;28;20045;-72
2024/01/20 05:03:31;;;;;;;25.88;19.00;;;0.60;99.90;;;;;;5053990;28;20048;-68
2024/01/20 05:05:56;;;;;;;24.27;17.88;;;0.70;99.90;;;;;;5046343;28;20041;-71
2024/01/20 05:08:22;;;;;;;24.92;18.02;;;0.60;99.90;;;;;;5045614;28;20045;-68
2024/01/20 05:10:48;;;;;;;26.05;18.58;;;0.60;99.90;;;;;;5052371;28;20369;-68
2024/01/20 05:13:13;;;;;;;24.50;18.23;;;0.70;99.90;;;;;;5052038;28;20493;-68
2024/01/20 05:15:39;;;;;;;28.00;18.65;;;0.90;99.90;;;;;;5047248;28;20133;-68
2024/01/20 05:18:05;;;;;;;26.13;18.55;;;0.90;99.90;;;;;;5018025;28;20363;-72
2024/01/20 05:20:31;;;;;;;27.95;19.52;;;0.60;99.90;;;;;;5033684;28;20322;-68
2024/01/20 05:22:56;;;;;;;25.98;19.55;;;0.70;99.90;;;;;;5051298;28;20484;-68
2024/01/20 05:25:22;;;;;;;28.05;19.95;;;0.70;99.90;;;;;;5051732;28;20386;-68
2024/01/20 05:27:48;;;;;;;26.98;19.90;;;1.40;99.90;;;;;;5050318;28;20417;-68
2024/01/20 05:30:14;;;;;;;25.75;21.13;;;0.50;99.90;;;;;;5050523;28;20372;-68
2024/01/20 05:32:41;;;;;;;29.13;20.75;;;0.50;99.90;;;;;;5049659;28;20052;-68
2024/01/20 05:35:07;;;;;;;28.20;20.35;;;0.70;99.90;;;;;;5043233;28;20520;-71
2024/01/20 05:37:32;;;;;;;28.10;20.65;;;0.50;99.90;;;;;;5051631;28;20044;-67
2024/01/20 05:39:58;;;;;;;28.52;21.05;;;0.50;99.90;;;;;;5049982;28;20335;-68
2024/01/20 05:42:24;;;;;;;32.38;21.58;;;0.70;99.90;;;;;;5051500;28;20122;-68
2024/01/20 05:44:49;;;;;;;28.10;21.20;;;0.40;99.90;;;;;;5028310;28;20133;-67
2024/01/20 05:47:15;;;;;;;26.13;19.90;;;0.40;99.90;;;;;;5053170;28;20029;-68
2024/01/20 05:49:41;;;;;;;30.83;21.60;;;0.40;99.90;;;;;;5050717;28;20040;-67
2024/01/20 05:52:06;;;;;;;29.85;20.73;;;0.40;99.90;;;;;;5048882;28;20037;-67
2024/01/20 05:54:32;;;;;;;34.60;21.15;;;0.30;99.90;;;;;;5039551;28;20074;-67
2024/01/20 05:56:58;;;;;;;35.55;21.48;;;0.30;99.90;;;;;;5046530;28;20033;-68
2024/01/20 05:59:24;;;;;;;30.50;21.55;;;0.30;99.90;;;;;;5047773;28;20033;-67
2024/01/20 06:01:52;;;;;;;29.20;21.80;;;0.40;99.90;;;;;;5032691;28;20382;-68
2024/01/20 06:04:18;;;;;;;33.45;21.65;;;0.30;99.90;;;;;;5051175;28;20470;-68
2024/01/20 06:06:47;;;;;;;31.42;22.58;;;0.30;99.90;;;;;;5029207;28;20094;-67
2024/01/20 06:09:13;;;;;;;32.30;21.75;;;0.20;99.90;;;;;;5050597;28;20117;-70
2024/01/20 06:11:40;;;;;;;33.42;22.38;;;0.30;99.90;;;;;;5046402;28;20083;-67
2024/01/20 06:14:06;;;;;;;31.42;21.52;;;0.20;99.90;;;;;;5050561;28;20534;-67
2024/01/20 06:16:33;;;;;;;30.98;22.60;;;0.10;99.90;;;;;;5040519;28;20176;-68
2024/01/20 06:18:59;;;;;;;32.13;23.00;;;0.20;99.90;;;;;;5040588;28;20075;-67
2024/01/20 06:21:25;;;;;;;32.50;23.25;;;0.70;99.90;;;;;;5040565;28;20483;-68
2024/01/20 06:23:51;;;;;;;29.33;22.17;;;0.10;99.90;;;;;;5033235;28;20390;-67
2024/01/20 06:26:17;;;;;;;36.55;23.92;;;0.10;99.90;;;;;;5033104;28;20076;-70
2024/01/20 06:28:43;;;;;;;34.35;24.02;;;0.10;99.90;;;;;;5035099;28;20056;-67
2024/01/20 06:31:09;;;;;;;33.50;23.63;;;0.10;99.90;;;;;;5046895;28;20048;-67
2024/01/20 06:33:35;;;;;;;31.08;22.40;;;0.10;99.90;;;;;;5044841;28;20049;-68
2024/01/20 06:36:01;;;;;;;38.60;23.75;;;0.00;99.90;;;;;;5036467;28;20118;-68
2024/01/20 06:38:28;;;;;;;35.72;24.13;;;0.20;99.90;;;;;;5049274;28;20040;-67
2024/01/20 06:40:54;;;;;;;37.72;23.77;;;0.00;99.90;;;;;;5032425;28;20386;-68
2024/01/20 06:43:20;;;;;;;33.72;22.88;;;0.30;99.90;;;;;;5044387;28;20048;-69
2024/01/20 06:45:46;;;;;;;30.67;23.00;;;0.10;99.90;;;;;;5035048;28;20367;-67
2024/01/20 06:48:12;;;;;;;37.17;23.15;;;0.10;99.90;;;;;;5038870;28;20051;-68
2024/01/20 06:50:43;;;;;;;34.53;23.27;;;0.10;99.90;;;;;;5041205;28;20304;-68
2024/01/20 06:53:12;;;;;;;33.90;21.58;;;0.10;99.90;;;;;;5038696;28;20478;-67
2024/01/20 06:55:38;;;;;;;32.58;22.08;;;0.10;99.90;;;;;;5034071;28;20057;-67
2024/01/20 06:58:04;;;;;;;41.42;22.98;;;0.10;99.90;;;;;;5038157;28;20069;-67
2024/01/20 07:00:30;;;;;;;34.83;23.25;;;0.10;99.90;;;;;;5030208;28;20044;-67
2024/01/20 07:02:58;;;;;;;36.10;22.42;;;0.10;99.90;;;;;;5039472;28;20033;-67
2024/01/20 07:05:23;;;;;;;35.83;23.50;;;0.70;99.90;;;;;;5041758;28;20496;-67
2024/01/20 07:07:49;;;;;;;34.90;22.88;;;0.10;99.90;;;;;;5037687;28;20132;-67
2024/01/20 07:10:15;;;;;;;33.60;21.90;;;0.10;99.90;;;;;;5048849;28;20037;-67
2024/01/20 07:12:41;;;;;;;35.67;22.08;;;0.10;99.90;;;;;;5033405;28;20053;-67
2024/01/20 07:15:07;;;;;;;37.10;21.85;;;0.10;99.90;;;;;;5042067;28;20051;-67
2024/01/20 07:17:33;;;;;;;38.05;23.00;;;0.10;99.90;;;;;;5043654;28;20382;-67
2024/01/20 07:19:59;;;;;;;35.63;21.85;;;0.30;99.90;;;;;;5042875;28;20041;-67
2024/01/20 07:22:25;;;;;;;39.28;22.73;;;0.00;99.90;;;;;;5040540;28;20048;-67
2024/01/20 07:24:51;;;;;;;37.95;23.50;;;0.10;99.90;;;;;;5044269;28;20076;-70
2024/01/20 07:27:16;;;;;;;35.60;22.58;;;0.10;99.90;;;;;;5050558;28;20374;-66
2024/01/20 07:29:42;;;;;;;38.78;22.85;;;0.00;99.90;;;;;;5039788;28;20072;-67
2024/01/20 07:32:08;;;;;;;34.65;22.52;;;0.00;99.90;;;;;;5047034;28;20037;-66
2024/01/20 07:34:33;;;;;;;36.15;23.45;;;0.40;99.90;;;;;;5039626;28;20084;-67
2024/01/20 07:36:59;;;;;;;39.05;24.73;;;0.10;99.90;;;;;;5043977;28;20391;-66
2024/01/20 07:39:25;;;;;;;37.47;24.33;;;0.10;99.90;;;;;;5036042;28;20083;-70
2024/01/20 07:41:50;;;;;;;37.28;23.42;;;0.00;99.90;;;;;;5047552;28;20428;-66
2024/01/20 07:44:16;;;;;;;34.90;23.38;;;0.10;99.90;;;;;;5035948;28;20057;-67
2024/01/20 07:46:42;;;;;;;40.58;24.35;;;0.20;99.90;;;;;;5041483;28;20358;-67
2024/01/20 07:49:08;;;;;;;36.00;23.35;;;0.10;99.90;;;;;;5042181;28;20029;-67
2024/01/20 07:51:33;;;;;;;33.75;22.50;;;0.40;99.90;;;;;;5052842;28;20125;-68
2024/01/20 07:53:59;;;;;;;37.55;22.13;;;0.20;99.90;;;;;;5038699;28;20037;-67
2024/01/20 07:56:25;;;;;;;38.88;23.67;;;0.20;99.90;;;;;;5052625;28;20037;-67
2024/01/20 07:58:50;;;;;;;34.33;22.98;;;0.30;99.90;;;;;;5051769;28;20045;-67
2024/01/20 08:01:20;;;;;;;37.17;22.77;;;0.30;99.90;;;;;;5065366;28;20095;-67
2024/01/20 08:03:45;;;;;;;33.45;22.90;;;0.30;99.90;;;;;;5053050;28;20067;-67
2024/01/20 08:06:11;;;;;;;38.17;24.10;;;0.40;99.90;;;;;;5046039;28;20041;-67
2024/01/20 08:08:37;;;;;;;34.78;22.65;;;0.50;99.90;;;;;;5049950;28;20433;-67
2024/01/20 08:11:02;;;;;;;35.17;22.10;;;0.40;99.90;;;;;;5040744;28;20034;-68
2024/01/20 08:13:28;;;;;;;39.35;24.08;;;0.50;99.90;;;;;;5051241;28;20054;-67
2024/01/20 08:15:54;;;;;;;38.40;23.85;;;0.60;99.90;;;;;;5050668;28;20041;-67
2024/01/20 08:18:19;;;;;;;38.10;24.02;;;0.60;99.90;;;;;;5053339;28;20470;-67
2024/01/20 08:20:45;;;;;;;41.88;23.92;;;0.60;99.90;;;;;;5051968;28;20455;-67
2024/01/20 08:23:11;;;;;;;38.80;23.95;;;0.70;99.90;;;;;;5052979;28;20501;-67
2024/01/20 08:25:36;;;;;;;36.88;24.42;;;0.70;99.90;;;;;;5032508;28;20041;-67
2024/01/20 08:28:02;;;;;;;38.47;24.42;;;0.80;99.90;;;;;;5052241;28;20116;-67
2024/01/20 08:30:29;;;;;;;34.40;23.10;;;0.80;99.90;;;;;;5044514;28;20458;-67
2024/01/20 08:32:54;;;;;;;39.00;24.85;;;1.10;99.90;;;;;;5046938;28;20044;-67
2024/01/20 08:35:20;;;;;;;38.70;24.67;;;0.80;99.90;;;;;;5053274;28;20043;-68
2024/01/20 08:37:46;;;;;;;43.47;25.27;;;0.70;99.90;;;;;;5038354;28;20467;-67
2024/01/20 08:40:11;;;;;;;39.13;25.48;;;0.80;99.90;;;;;;5054266;28;20457;-66
2024/01/20 08:42:37;;;;;;;41.70;25.38;;;0.80;99.90;;;;;;5050544;28;20040;-68
2024/01/20 08:45:03;;;;;;;36.85;24.50;;;0.90;99.90;;;;;;5043660;28;20054;-70
2024/01/20 08:47:29;;;;;;;39.03;24.60;;;0.80;99.90;;;;;;5034367;28;20095;-67
2024/01/20 08:49:54;;;;;;;36.03;24.05;;;0.90;99.90;;;;;;5050702;28;20101;-67
2024/01/20 08:52:20;;;;;;;40.30;25.15;;;0.90;99.90;;;;;;5048766;28;20049;-67
2024/01/20 08:54:46;;;;;;;40.85;24.80;;;1.00;99.90;;;;;;5050039;28;20036;-67
2024/01/20 08:57:13;;;;;;;37.28;25.45;;;0.90;99.90;;;;;;5047960;28;20489;-67
2024/01/20 08:59:38;;;;;;;40.60;25.55;;;0.90;99.90;;;;;;5042654;28;20390;-71
2024/01/20 09:02:05;;;;;;;39.10;25.60;;;1.20;99.90;;;;;;5047057;28;20047;-67
2024/01/20 09:04:31;;;;;;;38.20;23.98;;;0.90;99.90;;;;;;5041577;28;20037;-67
2024/01/20 09:06:57;;;;;;;36.92;25.17;;;0.90;99.90;;;;;;5031944;28;20839;-68
2024/01/20 09:09:22;;;;;;;41.55;25.65;;;0.90;99.90;;;;;;5038658;28;20044;-70
2024/01/20 09:11:48;;;;;;;43.45;24.80;;;0.80;99.90;;;;;;5042892;28;20041;-67
2024/01/20 09:14:14;;;;;;;36.95;24.25;;;0.90;99.90;;;;;;5046543;28;20120;-67
2024/01/20 09:16:40;;;;;;;41.55;25.67;;;0.90;99.90;;;;;;5031774;28;20140;-71
2024/01/20 09:19:06;;;;;;;34.90;24.38;;;0.90;99.90;;;;;;5031573;28;20518;-68
2024/01/20 09:21:32;;;;;;;40.08;25.70;;;0.90;99.90;;;;;;5046569;28;20037;-68
2024/01/20 09:23:58;;;;;;;38.50;25.05;;;0.90;99.90;;;;;;5044356;28;20047;-69
2024/01/20 09:26:23;;;;;;;40.40;26.10;;;0.90;99.90;;;;;;5038431;28;20381;-67
2024/01/20 09:28:49;;;;;;;40.17;25.27;;;1.00;99.90;;;;;;5041952;28;20120;-68
2024/01/20 09:31:15;;;;;;;39.00;24.48;;;1.00;99.90;;;;;;5049368;28;20037;-69
2024/01/20 09:33:43;;;;;;;37.35;24.10;;;1.00;99.90;;;;;;5064772;28;20041;-69
2024/01/20 09:36:09;;;;;;;40.97;26.38;;;0.90;99.90;;;;;;5031002;28;20116;-68
2024/01/20 09:38:35;;;;;;;40.60;23.50;;;1.00;99.90;;;;;;5031751;28;20052;-69
2024/01/20 09:41:01;;;;;;;36.10;23.02;;;1.50;99.90;;;;;;5049449;28;20036;-68
2024/01/20 09:43:28;;;;;;;37.20;23.98;;;1.10;99.90;;;;;;5051015;28;20415;-68
2024/01/20 09:45:57;;;;;;;36.90;22.63;;;1.10;99.90;;;;;;5032043;28;20550;-68
2024/01/20 09:48:23;;;;;;;37.95;22.70;;;1.10;99.90;;;;;;5031796;28;20044;-68
2024/01/20 09:50:49;;;;;;;36.08;22.67;;;1.20;99.90;;;;;;5055324;28;20132;-68
2024/01/20 09:53:16;;;;;;;34.05;22.98;;;1.20;99.90;;;;;;5040870;28;20124;-68
2024/01/20 09:55:44;;;;;;;35.75;23.52;;;1.20;99.90;;;;;;5014176;28;20049;-68
2024/01/20 09:58:14;;;;;;;38.35;24.33;;;1.20;99.90;;;;;;5031493;28;20048;-68
2024/01/20 10:00:41;;;;;;;38.35;23.90;;;1.20;99.90;;;;;;5042641;28;20071;-68
2024/01/20 10:03:11;;;;;;;40.25;23.42;;;1.20;99.90;;;;;;5059265;28;20581;-68
2024/01/20 10:05:37;;;;;;;36.00;23.88;;;1.30;99.90;;;;;;5043399;28;20048;-68
2024/01/20 10:08:05;;;;;;;35.15;22.42;;;1.30;99.90;;;;;;5036855;28;20469;-68
2024/01/20 10:10:32;;;;;;;34.25;21.65;;;1.30;99.90;;;;;;5032522;28;20103;-69
2024/01/20 10:13:00;;;;;;;36.35;21.88;;;1.60;99.90;;;;;;5039593;28;20041;-68
2024/01/20 10:15:28;;;;;;;31.83;21.10;;;1.50;99.90;;;;;;5039884;28;20041;-69
2024/01/20 10:17:57;;;;;;;34.80;22.00;;;1.40;99.90;;;;;;5032518;28;20120;-69
2024/01/20 10:20:35;;;;;;;34.70;21.92;;;1.50;99.90;;;;;;5030268;28;20048;-70
2024/01/20 10:23:02;;;;;;;31.17;20.33;;;1.50;99.90;;;;;;5036235;28;20046;-69
2024/01/20 10:25:29;;;;;;;34.13;21.95;;;1.50;99.90;;;;;;5043163;28;20049;-69
2024/01/20 10:27:55;;;;;;;34.33;20.58;;;1.50;99.90;;;;;;5053496;28;20484;-69
2024/01/20 10:30:21;;;;;;;34.13;21.50;;;1.50;99.90;;;;;;5081162;28;20183;-69
2024/01/20 10:32:50;;;;;;;34.25;22.00;;;1.60;99.90;;;;;;5054205;28;20042;-69
2024/01/20 10:35:16;;;;;;;34.28;20.50;;;1.60;99.90;;;;;;5065033;28;20044;-69
2024/01/20 10:37:44;;;;;;;31.27;20.85;;;1.60;99.90;;;;;;5050109;28;20037;-69
2024/01/20 10:40:12;;;;;;;34.83;20.60;;;1.60;99.90;;;;;;5036880;28;20497;-69
2024/01/20 10:43:02;;;;;;;37.08;20.92;;;1.60;99.90;;;;;;5036386;28;20036;-69
2024/01/20 10:45:33;;;;;;;36.10;20.38;;;1.90;99.90;;;;;;5065698;28;20076;-70
2024/01/20 10:47:58;;;;;;;31.35;20.33;;;1.70;99.90;;;;;;5053633;28;20045;-70
2024/01/20 10:50:27;;;;;;;30.50;19.92;;;1.70;99.90;;;;;;5053688;28;20378;-70
2024/01/20 10:52:53;;;;;;;32.63;20.38;;;2.10;99.90;;;;;;5055280;28;20052;-72
2024/01/20 10:55:20;;;;;;;32.55;20.63;;;1.70;99.90;;;;;;5055662;28;20081;-70
2024/01/20 10:57:46;;;;;;;32.95;20.75;;;1.80;99.90;;;;;;5053184;28;20037;-70
2024/01/20 11:00:13;;;;;;;36.58;19.50;;;1.70;99.90;;;;;;5054449;28;20037;-70
2024/01/20 11:02:40;;;;;;;35.38;20.73;;;1.80;99.90;;;;;;5053300;28;20087;-70
2024/01/20 11:05:18;;;;;;;33.58;21.05;;;1.70;99.90;;;;;;5038697;28;20040;-71
2024/01/20 11:08:07;;;;;;;35.80;21.63;;;1.80;99.90;;;;;;5066906;28;20048;-71
2024/01/20 11:10:53;;;;;;;35.28;20.70;;;1.80;99.90;;;;;;5043431;28;20060;-70
2024/01/20 11:13:24;;;;;;;31.67;20.30;;;1.90;99.90;;;;;;5043361;28;20118;-70
2024/01/20 11:15:51;;;;;;;31.85;20.15;;;1.90;99.90;;;;;;5047973;28;20099;-69
2024/01/20 11:18:23;;;;;;;34.53;20.00;;;1.90;99.90;;;;;;5044651;28;20081;-69
2024/01/20 11:21:02;;;;;;;30.75;19.92;;;1.90;99.90;;;;;;5047387;28;20041;-69
2024/01/20 11:23:29;;;;;;;33.25;20.83;;;1.90;99.90;;;;;;5031515;28;20055;-69
2024/01/20 11:25:56;;;;;;;35.25;20.00;;;1.90;99.90;;;;;;5041257;28;20041;-70
2024/01/20 11:28:33;;;;;;;30.88;18.35;;;1.90;99.90;;;;;;5060989;28;20361;-71
2024/01/20 11:30:59;;;;;;;33.20;20.52;;;2.00;99.90;;;;;;5051146;28;20119;-75
2024/01/20 11:33:25;;;;;;;35.63;20.83;;;1.90;99.90;;;;;;5041475;28;20095;-71
2024/01/20 11:35:54;;;;;;;34.28;19.67;;;1.90;99.90;;;;;;5035648;28;20077;-69
2024/01/20 11:38:21;;;;;;;33.88;20.83;;;2.00;99.90;;;;;;5063185;28;20057;-68
2024/01/20 11:41:03;;;;;;;32.72;20.67;;;2.20;99.90;;;;;;5032996;28;20055;-68
2024/01/20 11:43:29;;;;;;;36.95;20.23;;;2.00;99.90;;;;;;5035574;28;20041;-68
2024/01/20 11:45:58;;;;;;;35.33;21.15;;;2.00;99.90;;;;;;5071565;28;20045;-68
2024/01/20 11:48:24;;;;;;;33.38;20.42;;;2.00;99.90;;;;;;5051297;28;20061;-70
2024/01/20 11:50:51;;;;;;;34.72;20.23;;;2.00;99.90;;;;;;5032854;28;20399;-69
2024/01/20 11:53:17;;;;;;;32.72;19.88;;;2.60;99.90;;;;;;5032688;28;20387;-69
2024/01/20 11:55:59;;;;;;;30.05;19.38;;;2.10;99.90;;;;;;5032562;28;20034;-69
2024/01/20 11:58:26;;;;;;;37.47;22.30;;;2.00;99.90;;;;;;5049146;28;21005;-70
2024/01/20 12:00:53;;;;;;;33.30;19.65;;;2.10;99.90;;;;;;5046793;28;20071;-69
2024/01/20 12:03:20;;;;;;;36.10;21.52;;;2.10;99.90;;;;;;5037981;28;20048;-69
2024/01/20 12:05:45;;;;;;;34.92;23.00;;;2.10;99.90;;;;;;5042172;28;20037;-69
2024/01/20 12:08:12;;;;;;;36.92;22.80;;;2.10;99.90;;;;;;5043150;28;20527;-70
2024/01/20 12:10:38;;;;;;;36.00;22.33;;;2.40;99.90;;;;;;5040994;28;20095;-69
2024/01/20 12:13:04;;;;;;;36.88;22.88;;;2.10;99.90;;;;;;5039919;28;20112;-69
2024/01/20 12:15:36;;;;;;;37.85;23.05;;;2.10;99.90;;;;;;5030393;28;20676;-73
2024/01/20 12:18:02;;;;;;;35.38;21.52;;;2.30;99.90;;;;;;5041143;28;20116;-68
2024/01/20 12:20:27;;;;;;;36.55;23.00;;;2.20;99.90;;;;;;5041821;28;20120;-68
2024/01/20 12:22:57;;;;;;;35.78;22.70;;;2.20;99.90;;;;;;5040859;28;20395;-70
2024/01/20 12:25:26;;;;;;;37.10;24.13;;;2.20;99.90;;;;;;5040592;28;20044;-68
2024/01/20 12:27:51;;;;;;;38.45;24.55;;;2.20;99.90;;;;;;5045433;28;20037;-69
2024/01/20 12:30:17;;;;;;;39.75;23.42;;;2.30;99.90;;;;;;5062398;28;20086;-68
2024/01/20 12:32:43;;;;;;;35.00;21.83;;;2.30;99.90;;;;;;5043892;28;20056;-66
2024/01/20 12:35:09;;;;;;;36.83;22.90;;;2.40;99.90;;;;;;5038597;28;20474;-72